Strona główna
Zdjęcia satelitarne 10-dni prognozyKlimatMeteorologia morska Cyklony Błyskawica LotniskoFAQ Gazetka O
Pogoda : Europa Afryka Ameryka Północna Ameryka Południowa Azja Australia-Oceania Inny
Języki Kontakt

Katowice, Polska

Port lotniczy Katowice-Pyrzowice

Szerokość geograficzna: 50-28-27N, Długość geograficzna: 019-04-48E, wysokość: 284 m


METAR: EPKT 312030Z 26023KT 9999 BKN040 06/00 Q0994
TAF: EPKT 312030Z 3121/0106 26018KT 9999 BKN040 TEMPO 3121/3124 26020G35KT SHRA SHRASN BKN014CB

czas: 22:42 (20:42 UTC)

Aktualna obserwacja pogody

Raport powstał 12 minut temu, godzina 20:30 UTC
Wiatr 23 kt od zachód
Temperatura 6°C
Wilgotność 65%
Ciśnienie 994 hPa
Widzialność 10 km lub więcej
Przerywane chmury na wysokości 4000 ft

Jednostka miary

Prognoza

Raport powstał 12 minut temu, godzina 20:30 UTC
Prognoza ważna od 31 godzina 21 UTC do 01 godzina 06 UTC
Wiatr 18 kt od zachód
Widzialność 10 km lub więcej
Przerywane chmury na wysokości 4000 ft
Przejściowo
od 31 godzina 21 UTC do 31 godzina 24 UTC
Wiatr 20 kt od zachód w porywach dochodzący do 35 kt
Przerywane chmury na wysokości 1400 ft, Cumulonimbus.
przelotny opad deszczu, przelotny opad deszczu, śnieg
Informacje na tej stronie internetowej podlegają klauzuli o wyłączeniu odpowiedzialności
Pogoda : Europa Afryka Ameryka Północna Ameryka Południowa Azja Australia-Oceania Inny
Zdjęcia satelitarne 10-dni prognozyKlimatMeteorologia morska Cyklony Błyskawica LotniskoFAQ Języki Kontakt Gazetka O